Time;durP1;ratioP1;P1;durP2;ratioP2;P2;SDS_P1;SDS_P2;PMS_P1;PMS_P2;Temp;Humidity;BMP_temperature;BMP_pressure;BME280_temperature;BME280_humidity;BME280_pressure;Samples;Min_cycle;Max_cycle;Signal;HPM_P1;HPM_P2
2024/01/12 00:00:55;;;;;;;0.03;0.03;;;;;;;-6.25;100.00;144760.50;4924885;28;20230;-66
2024/01/12 00:03:22;;;;;;;0.00;0.00;;;;;;;-6.27;100.00;144756.84;4928150;28;20233;-66
2024/01/12 00:05:50;;;;;;;0.00;0.00;;;;;;;-6.19;100.00;144774.06;4926123;28;20233;-67
2024/01/12 00:08:17;;;;;;;0.00;0.00;;;;;;;-6.16;100.00;144782.63;4929077;28;20233;-66
2024/01/12 00:10:43;;;;;;;0.00;0.00;;;;;;;-6.17;100.00;144780.19;4925651;28;20249;-66
2024/01/12 00:13:10;;;;;;;0.00;0.00;;;;;;;-6.19;100.00;144774.06;4928167;28;20237;-66
2024/01/12 00:15:36;;;;;;;0.00;0.00;;;;;;;-6.20;100.00;144771.59;4928651;28;20232;-66
2024/01/12 00:18:03;;;;;;;0.00;0.00;;;;;;;-6.23;100.00;144766.66;4922467;28;20230;-67
2024/01/12 00:20:30;;;;;;;0.03;0.03;;;;;;;-6.23;100.00;144765.41;4923630;28;20236;-66
2024/01/12 00:22:58;;;;;;;0.07;0.07;;;;;;;-6.19;100.00;144775.25;4939365;28;20239;-67
2024/01/12 00:25:25;;;;;;;0.00;0.00;;;;;;;-6.16;100.00;144781.44;4927650;28;20230;-66
2024/01/12 00:27:51;;;;;;;0.00;0.00;;;;;;;-6.23;100.00;144766.66;4925009;28;20315;-66
2024/01/12 00:30:18;;;;;;;0.00;0.00;;;;;;;-6.25;100.00;144760.50;4920098;28;20699;-67
2024/01/12 00:32:44;;;;;;;0.00;0.00;;;;;;;-6.21;100.00;144770.34;4916929;28;20236;-67
2024/01/12 00:35:11;;;;;;;0.00;0.00;;;;;;;-6.19;100.00;144774.06;4927011;28;20694;-67
2024/01/12 00:37:37;;;;;;;0.00;0.00;;;;;;;-6.25;100.00;144760.50;4918459;28;20212;-67
2024/01/12 00:40:07;;;;;;;0.00;0.00;;;;;;;-6.23;100.00;144765.41;4925036;28;20228;-66
2024/01/12 00:42:34;;;;;;;0.00;0.00;;;;;;;-6.24;100.00;144762.97;4927407;28;20646;-66
2024/01/12 00:45:01;;;;;;;0.00;0.00;;;;;;;-6.28;100.00;144753.13;4923622;28;20247;-67
2024/01/12 00:47:27;;;;;;;0.00;0.00;;;;;;;-6.27;100.00;144756.84;4927418;28;20228;-66
2024/01/12 00:49:54;;;;;;;0.00;0.00;;;;;;;-6.20;100.00;144772.78;4924272;28;20294;-66
2024/01/12 00:52:20;;;;;;;0.00;0.00;;;;;;;-6.11;100.00;144793.72;4926974;28;20242;-67
2024/01/12 00:54:47;;;;;;;0.00;0.00;;;;;;;-6.14;100.00;144786.34;4924650;28;20221;-66
2024/01/12 00:57:15;;;;;;;0.00;0.00;;;;;;;-6.15;100.00;144785.09;4927640;28;20233;-66
2024/01/12 00:59:41;;;;;;;0.00;0.00;;;;;;;-6.09;100.00;144799.88;4928192;28;20234;-66
2024/01/12 01:02:08;;;;;;;0.00;0.00;;;;;;;-6.03;100.00;144813.41;4912534;28;20543;-66
2024/01/12 01:04:35;;;;;;;0.00;0.00;;;;;;;-6.12;100.00;144792.47;4927338;28;20233;-66
2024/01/12 01:07:01;;;;;;;0.00;0.00;;;;;;;-6.23;100.00;144765.41;4925345;28;20232;-66
2024/01/12 01:09:28;;;;;;;0.00;0.00;;;;;;;-6.20;100.00;144772.78;4928220;28;20248;-66
2024/01/12 01:11:55;;;;;;;0.00;0.00;;;;;;;-6.22;100.00;144767.88;4925169;28;20225;-67
2024/01/12 01:14:24;;;;;;;0.00;0.00;;;;;;;-6.29;100.00;144751.91;4942408;28;20237;-66
2024/01/12 01:16:51;;;;;;;0.00;0.00;;;;;;;-6.34;100.00;144738.34;4925180;28;20233;-66
2024/01/12 01:19:18;;;;;;;0.00;0.00;;;;;;;-6.24;100.00;144762.97;4927640;28;20310;-66
2024/01/12 01:21:45;;;;;;;0.00;0.00;;;;;;;-6.29;100.00;144750.66;4925162;28;20245;-66
2024/01/12 01:24:11;;;;;;;0.03;0.03;;;;;;;-6.30;100.00;144749.44;4927661;28;20253;-66
2024/01/12 01:26:38;;;;;;;0.00;0.00;;;;;;;-6.29;100.00;144751.91;4927321;28;20236;-66
2024/01/12 01:29:04;;;;;;;0.00;0.00;;;;;;;-6.33;100.00;144742.06;4923553;28;20234;-66
2024/01/12 01:31:32;;;;;;;0.00;0.00;;;;;;;-6.40;100.00;144726.09;4927680;28;20763;-67
2024/01/12 01:33:59;;;;;;;0.00;0.00;;;;;;;-6.32;100.00;144743.28;4925156;28;20238;-66
2024/01/12 01:36:25;;;;;;;0.07;0.07;;;;;;;-6.30;100.00;144748.19;4923556;29;20240;-66
2024/01/12 01:38:52;;;;;;;0.00;0.00;;;;;;;-6.33;100.00;144742.06;4923931;28;20233;-66
2024/01/12 01:41:19;;;;;;;0.10;0.10;;;;;;;-6.37;100.00;144732.22;4927850;28;20227;-66
2024/01/12 01:43:45;;;;;;;0.00;0.00;;;;;;;-6.39;100.00;144727.31;4924696;28;20220;-66
2024/01/12 01:46:12;;;;;;;0.00;0.00;;;;;;;-6.35;100.00;144737.16;4927250;28;20236;-66
2024/01/12 01:48:40;;;;;;;0.00;0.00;;;;;;;-6.35;100.00;144735.91;4927844;28;20237;-66
2024/01/12 01:51:07;;;;;;;0.10;0.10;;;;;;;-6.36;100.00;144733.47;4924950;28;20629;-66
2024/01/12 01:53:33;;;;;;;0.00;0.00;;;;;;;-6.44;100.00;144716.25;4927166;28;20231;-66
2024/01/12 01:56:02;;;;;;;0.03;0.03;;;;;;;-6.49;100.00;144703.97;4924475;28;20446;-66
2024/01/12 01:58:29;;;;;;;0.00;0.00;;;;;;;-6.54;100.00;144691.66;4927318;28;20240;-66
2024/01/12 02:00:57;;;;;;;0.00;0.00;;;;;;;-6.53;100.00;144694.13;4924466;28;20246;-66
2024/01/12 02:03:25;;;;;;;0.10;0.10;;;;;;;-6.52;100.00;144696.59;4927527;28;20225;-66
2024/01/12 02:05:56;;;;;;;0.00;0.00;;;;;;;-6.51;100.00;144699.03;4924678;28;20311;-66
2024/01/12 02:08:23;;;;;;;0.00;0.00;;;;;;;-6.48;100.00;144705.16;4926569;28;20316;-66
2024/01/12 02:10:52;;;;;;;0.10;0.10;;;;;;;-6.47;100.00;144707.63;4939006;28;20232;-66
2024/01/12 02:13:18;;;;;;;0.00;0.00;;;;;;;-6.54;100.00;144692.88;4927206;28;20234;-66
2024/01/12 02:15:45;;;;;;;0.00;0.00;;;;;;;-6.58;100.00;144683.03;4939789;28;20228;-66
2024/01/12 02:18:12;;;;;;;0.00;0.00;;;;;;;-6.65;100.00;144664.63;4927118;28;20512;-66
2024/01/12 02:20:39;;;;;;;0.00;0.00;;;;;;;-6.68;100.00;144658.44;4927070;28;20232;-66
2024/01/12 02:23:07;;;;;;;0.03;0.03;;;;;;;-6.64;100.00;144667.06;4912851;28;20737;-66
2024/01/12 02:25:33;;;;;;;0.10;0.10;;;;;;;-6.69;100.00;144657.25;4917156;28;20241;-66
2024/01/12 02:28:00;;;;;;;0.07;0.07;;;;;;;-6.71;100.00;144651.06;4938381;28;20221;-66
2024/01/12 02:30:27;;;;;;;0.00;0.00;;;;;;;-6.69;100.00;144655.97;4927147;28;20225;-66
2024/01/12 02:32:54;;;;;;;0.10;0.10;;;;;;;-6.65;100.00;144664.63;4924001;28;20240;-66
2024/01/12 02:35:20;;;;;;;0.00;0.00;;;;;;;-6.66;100.00;144663.38;4927135;28;20705;-67
2024/01/12 02:37:47;;;;;;;0.00;0.00;;;;;;;-6.65;100.00;144664.63;4916094;28;20240;-66
2024/01/12 02:40:15;;;;;;;0.00;0.00;;;;;;;-6.64;100.00;144667.06;4927251;28;20244;-66
2024/01/12 02:42:41;;;;;;;0.10;0.10;;;;;;;-6.69;100.00;144655.97;4927964;28;20624;-66
2024/01/12 02:45:08;;;;;;;0.00;0.00;;;;;;;-6.74;100.00;144644.94;4924084;28;20223;-66
2024/01/12 02:47:35;;;;;;;0.10;0.10;;;;;;;-6.73;100.00;144647.41;4926386;28;20231;-66
2024/01/12 02:50:02;;;;;;;0.00;0.00;;;;;;;-6.64;100.00;144668.28;4924504;28;20247;-66
2024/01/12 02:52:28;;;;;;;0.10;0.10;;;;;;;-6.70;100.00;144654.78;4927109;28;20228;-66
2024/01/12 02:54:55;;;;;;;0.10;0.10;;;;;;;-6.72;100.00;144649.84;4922870;28;20241;-66
2024/01/12 02:57:23;;;;;;;0.00;0.00;;;;;;;-6.65;100.00;144665.81;4928043;28;20240;-66
2024/01/12 02:59:49;;;;;;;0.10;0.10;;;;;;;-6.68;100.00;144659.69;4942261;28;20236;-66
2024/01/12 03:02:16;;;;;;;0.00;0.00;;;;;;;-6.73;100.00;144647.41;4930199;28;20613;-66
2024/01/12 03:04:43;;;;;;;0.00;0.00;;;;;;;-6.77;100.00;144637.56;4927801;28;20244;-66
2024/01/12 03:07:10;;;;;;;0.00;0.00;;;;;;;-6.80;100.00;144630.19;4930466;28;20243;-66
2024/01/12 03:09:36;;;;;;;0.10;0.10;;;;;;;-6.86;100.00;144615.44;4930796;28;20255;-66
2024/01/12 03:12:04;;;;;;;0.03;0.03;;;;;;;-6.91;100.00;144604.38;4927485;28;20357;-66
2024/01/12 03:14:32;;;;;;;0.00;0.00;;;;;;;-6.92;100.00;144600.69;4930439;28;20242;-66
2024/01/12 03:16:58;;;;;;;0.10;0.10;;;;;;;-6.94;100.00;144595.75;4927946;28;20237;-66
2024/01/12 03:19:25;;;;;;;0.10;0.10;;;;;;;-6.92;100.00;144600.69;4930116;28;20228;-66
2024/01/12 03:21:51;;;;;;;0.00;0.00;;;;;;;-6.93;100.00;144598.22;4927138;28;20258;-66
2024/01/12 03:24:18;;;;;;;0.00;0.00;;;;;;;-6.94;100.00;144597.00;4928400;29;20232;-66
2024/01/12 03:26:46;;;;;;;0.00;0.00;;;;;;;-6.96;100.00;144592.09;4927040;28;20233;-66
2024/01/12 03:29:14;;;;;;;0.10;0.10;;;;;;;-6.96;100.00;144592.09;4930369;28;20232;-66
2024/01/12 03:31:42;;;;;;;0.00;0.00;;;;;;;-6.97;100.00;144590.84;4929872;28;20237;-66
2024/01/12 03:34:09;;;;;;;0.00;0.00;;;;;;;-6.89;100.00;144608.06;4927039;28;20224;-66
2024/01/12 03:36:35;;;;;;;0.00;0.00;;;;;;;-6.83;100.00;144624.00;4929791;28;20299;-66
2024/01/12 03:39:02;;;;;;;0.00;0.00;;;;;;;-6.82;100.00;144625.28;4918605;28;20236;-66
2024/01/12 03:41:29;;;;;;;0.00;0.00;;;;;;;-6.80;100.00;144630.19;4929898;28;20224;-66
2024/01/12 03:43:55;;;;;;;0.00;0.00;;;;;;;-6.85;100.00;144617.88;4927214;28;20715;-66
2024/01/12 03:46:22;;;;;;;0.00;0.00;;;;;;;-6.93;100.00;144599.47;4929212;28;20583;-66
2024/01/12 03:48:50;;;;;;;0.00;0.00;;;;;;;-6.93;100.00;144598.22;4926288;28;20243;-66
2024/01/12 03:51:17;;;;;;;0.10;0.10;;;;;;;-6.90;100.00;144605.59;4929346;28;20644;-65
2024/01/12 03:53:44;;;;;;;0.00;0.00;;;;;;;-6.96;100.00;144592.09;4926961;28;20323;-66
2024/01/12 03:56:10;;;;;;;0.10;0.10;;;;;;;-7.01;100.00;144581.00;4942996;28;20227;-66
2024/01/12 03:58:38;;;;;;;0.00;0.00;;;;;;;-7.07;100.00;144565.06;4928838;28;20868;-66
2024/01/12 04:04:07;;;;;;;0.10;0.10;;;;;;;-6.82;100.00;144625.28;5658506;23;20253;-65
2024/01/12 04:06:33;;;;;;;0.00;0.00;;;;;;;-6.82;100.00;144625.28;4977143;28;20262;-66
2024/01/12 04:09:00;;;;;;;0.00;0.00;;;;;;;-6.85;100.00;144617.88;4974012;28;20705;-65
2024/01/12 04:11:27;;;;;;;0.00;0.00;;;;;;;-6.92;100.00;144600.69;4983262;28;20724;-65
2024/01/12 04:13:53;;;;;;;0.00;0.00;;;;;;;-7.00;100.00;144582.25;4969835;28;20225;-66
2024/01/12 04:16:21;;;;;;;0.10;0.10;;;;;;;-7.05;100.00;144569.97;4975165;28;20237;-66
2024/01/12 04:18:47;;;;;;;0.00;0.00;;;;;;;-7.08;100.00;144563.81;4976606;28;20237;-66
2024/01/12 04:21:15;;;;;;;0.00;0.00;;;;;;;-7.05;100.00;144569.97;4977651;28;20246;-66
2024/01/12 04:23:42;;;;;;;0.00;0.00;;;;;;;-7.11;100.00;144556.41;4974605;28;20281;-66
2024/01/12 04:26:09;;;;;;;0.00;0.00;;;;;;;-7.15;100.00;144546.59;4973358;28;20230;-65
2024/01/12 04:28:35;;;;;;;0.10;0.10;;;;;;;-7.17;100.00;144541.69;4978528;28;20238;-65
2024/01/12 04:31:02;;;;;;;0.00;0.00;;;;;;;-7.18;100.00;144539.22;5242911;23;21496;-67
2024/01/12 04:33:30;;;;;;;0.00;0.00;;;;;;;-7.08;100.00;144562.59;4978757;28;20288;-66
2024/01/12 04:35:57;;;;;;;0.00;0.00;;;;;;;-7.03;100.00;144576.09;4973944;28;20218;-67
2024/01/12 04:38:26;;;;;;;0.00;0.00;;;;;;;-7.02;100.00;144577.34;4982779;28;20231;-67
2024/01/12 04:40:53;;;;;;;0.10;0.10;;;;;;;-7.07;100.00;144566.25;4975794;28;20701;-67
2024/01/12 04:43:19;;;;;;;0.00;0.00;;;;;;;-7.07;100.00;144566.25;4985399;28;20218;-67
2024/01/12 04:45:46;;;;;;;0.00;0.00;;;;;;;-7.08;100.00;144562.59;4983183;28;20230;-67
2024/01/12 04:48:13;;;;;;;0.00;0.00;;;;;;;-7.15;100.00;144547.84;4986019;28;20234;-66
2024/01/12 04:50:39;;;;;;;0.10;0.10;;;;;;;-7.22;100.00;144529.38;4986012;28;20236;-66
2024/01/12 04:53:06;;;;;;;0.00;0.00;;;;;;;-7.26;100.00;144522.00;4982503;28;20698;-66
2024/01/12 04:55:34;;;;;;;0.00;0.00;;;;;;;-7.23;100.00;144528.19;4983685;28;20237;-66
2024/01/12 04:58:00;;;;;;;0.00;0.00;;;;;;;-7.10;100.00;144558.88;4982256;28;20227;-66
2024/01/12 05:00:28;;;;;;;0.00;0.00;;;;;;;-7.14;100.00;144550.31;4984673;28;20241;-66
2024/01/12 05:02:54;;;;;;;0.00;0.00;;;;;;;-7.16;100.00;144544.13;4982894;28;20235;-66
2024/01/12 05:05:21;;;;;;;0.10;0.10;;;;;;;-7.18;100.00;144539.22;4983724;28;20713;-66
2024/01/12 05:07:50;;;;;;;0.00;0.00;;;;;;;-7.09;100.00;144560.13;4971633;28;20221;-67
2024/01/12 05:10:17;;;;;;;0.03;0.03;;;;;;;-7.22;100.00;144530.63;4984491;28;20228;-67
2024/01/12 05:12:45;;;;;;;0.10;0.10;;;;;;;-7.20;100.00;144534.31;4982042;28;20237;-67
2024/01/12 05:15:12;;;;;;;0.00;0.00;;;;;;;-7.23;100.00;144526.94;4984138;28;20221;-67
2024/01/12 05:17:38;;;;;;;0.10;0.10;;;;;;;-7.30;100.00;144510.97;4983713;28;20705;-67
2024/01/12 05:20:06;;;;;;;0.00;0.00;;;;;;;-7.17;100.00;144542.94;4982334;28;20237;-66
2024/01/12 05:22:35;;;;;;;0.10;0.10;;;;;;;-7.17;100.00;144542.94;4984530;28;20242;-66
2024/01/12 05:25:02;;;;;;;0.00;0.00;;;;;;;-7.29;100.00;144514.63;4981783;28;20690;-66
2024/01/12 05:27:28;;;;;;;0.00;0.00;;;;;;;-7.29;100.00;144513.44;4984453;28;20230;-66
2024/01/12 05:29:57;;;;;;;0.00;0.00;;;;;;;-7.38;100.00;144492.50;4980975;28;20588;-66
2024/01/12 05:32:23;;;;;;;0.00;0.00;;;;;;;-7.43;100.00;144481.47;4984251;28;20690;-67
2024/01/12 05:34:50;;;;;;;0.10;0.10;;;;;;;-7.34;100.00;144502.34;4981491;28;20230;-67
2024/01/12 05:37:17;;;;;;;0.00;0.00;;;;;;;-7.30;100.00;144512.19;4985133;28;20234;-66
2024/01/12 05:39:44;;;;;;;0.10;0.10;;;;;;;-7.29;100.00;144514.63;4980294;28;20237;-66
2024/01/12 05:42:11;;;;;;;0.00;0.00;;;;;;;-7.30;100.00;144512.19;4984689;28;20235;-67
2024/01/12 05:44:37;;;;;;;0.00;0.00;;;;;;;-7.34;100.00;144501.13;4983389;28;20233;-67
2024/01/12 05:47:06;;;;;;;0.00;0.00;;;;;;;-7.33;100.00;144503.59;4981935;28;20235;-67
2024/01/12 05:49:33;;;;;;;0.00;0.00;;;;;;;-7.32;100.00;144506.06;4984792;28;20305;-67
2024/01/12 05:51:59;;;;;;;0.00;0.00;;;;;;;-7.32;100.00;144506.06;4981927;28;20245;-67
2024/01/12 05:54:26;;;;;;;0.00;0.00;;;;;;;-7.37;100.00;144493.75;4985165;28;20221;-67
2024/01/12 05:56:53;;;;;;;0.00;0.00;;;;;;;-7.36;100.00;144496.22;4982585;28;20230;-66
2024/01/12 05:59:20;;;;;;;0.03;0.03;;;;;;;-7.41;100.00;144486.38;4985244;28;20823;-67
2024/01/12 06:01:47;;;;;;;0.00;0.00;;;;;;;-7.33;100.00;144503.59;4981549;28;20226;-67
2024/01/12 06:04:17;;;;;;;0.00;0.00;;;;;;;-7.40;100.00;144487.59;4984558;28;20260;-67
2024/01/12 06:06:44;;;;;;;0.00;0.00;;;;;;;-7.35;100.00;144499.88;4980502;28;20232;-67
2024/01/12 06:09:10;;;;;;;0.00;0.00;;;;;;;-7.41;100.00;144486.38;4983712;28;20229;-67
2024/01/12 06:11:37;;;;;;;0.00;0.00;;;;;;;-7.38;100.00;144492.50;4983291;28;20717;-67
2024/01/12 06:14:04;;;;;;;0.00;0.00;;;;;;;-7.41;100.00;144486.38;4980194;28;20245;-67
2024/01/12 06:16:30;;;;;;;0.00;0.00;;;;;;;-7.41;100.00;144485.13;4984720;28;20238;-67
2024/01/12 06:18:58;;;;;;;0.00;0.00;;;;;;;-7.47;100.00;144470.44;4968834;28;20231;-67
2024/01/12 06:21:26;;;;;;;0.03;0.03;;;;;;;-7.52;100.00;144458.16;4980626;28;20703;-67
2024/01/12 06:23:53;;;;;;;0.00;0.00;;;;;;;-7.56;100.00;144449.53;4979770;28;20223;-67
2024/01/12 06:26:20;;;;;;;0.00;0.00;;;;;;;-7.59;100.00;144443.41;4983936;28;20285;-68
2024/01/12 06:28:46;;;;;;;0.00;0.00;;;;;;;-7.61;100.00;144438.50;4981219;28;20235;-68
2024/01/12 06:31:13;;;;;;;0.00;0.00;;;;;;;-7.51;100.00;144460.59;4983246;28;20229;-67
2024/01/12 06:33:40;;;;;;;0.00;0.00;;;;;;;-7.46;100.00;144472.91;4978897;28;20918;-67
2024/01/12 06:36:06;;;;;;;0.00;0.00;;;;;;;-7.50;100.00;144463.06;4985078;28;20231;-67
2024/01/12 06:38:34;;;;;;;0.07;0.07;;;;;;;-7.51;100.00;144460.59;4986362;28;20229;-67
2024/01/12 06:41:02;;;;;;;0.00;0.00;;;;;;;-7.48;100.00;144467.97;4984766;28;20221;-67
2024/01/12 06:43:29;;;;;;;0.00;0.00;;;;;;;-7.50;100.00;144463.06;4987900;28;20249;-67
2024/01/12 06:45:56;;;;;;;0.00;0.00;;;;;;;-7.53;100.00;144456.91;4982648;28;20227;-67
2024/01/12 06:48:22;;;;;;;0.00;0.00;;;;;;;-7.59;100.00;144443.41;4981926;28;20228;-67
2024/01/12 06:50:49;;;;;;;0.00;0.00;;;;;;;-7.60;100.00;144440.94;4984533;28;20226;-67
2024/01/12 06:53:15;;;;;;;0.00;0.00;;;;;;;-7.59;100.00;144443.41;4985290;28;20225;-67
2024/01/12 06:55:43;;;;;;;0.00;0.00;;;;;;;-7.51;100.00;144461.81;4988233;28;20242;-67
2024/01/12 06:58:10;;;;;;;0.10;0.10;;;;;;;-7.55;100.00;144451.97;4984298;28;20219;-67
2024/01/12 07:00:36;;;;;;;0.00;0.00;;;;;;;-7.62;100.00;144434.78;4986408;28;20742;-67
2024/01/12 07:03:03;;;;;;;0.00;0.00;;;;;;;-7.66;100.00;144426.19;4982996;28;20237;-66
2024/01/12 07:05:30;;;;;;;0.10;0.10;;;;;;;-7.72;100.00;144411.47;4987289;28;20255;-66
2024/01/12 07:07:57;;;;;;;0.00;0.00;;;;;;;-7.67;100.00;144422.50;4999201;28;20550;-66
2024/01/12 07:10:23;;;;;;;0.10;0.10;;;;;;;-7.68;100.00;144420.03;4987612;28;20253;-66
2024/01/12 07:12:52;;;;;;;0.10;0.10;;;;;;;-7.68;100.00;144420.03;4983963;28;20236;-67
2024/01/12 07:15:20;;;;;;;0.10;0.10;;;;;;;-7.66;100.00;144424.97;4984963;28;20235;-66
2024/01/12 07:17:47;;;;;;;0.00;0.00;;;;;;;-7.72;100.00;144412.66;4983990;28;20288;-67
2024/01/12 07:20:14;;;;;;;0.00;0.00;;;;;;;-7.68;100.00;144421.28;4985196;28;20700;-67
2024/01/12 07:22:42;;;;;;;0.07;0.07;;;;;;;-7.60;100.00;144439.69;4986515;28;20237;-67
2024/01/12 07:25:09;;;;;;;0.10;0.10;;;;;;;-7.60;100.00;144440.94;4984605;28;21124;-67
2024/01/12 07:27:39;;;;;;;0.00;0.00;;;;;;;-7.57;100.00;144447.06;4986597;28;20229;-67
2024/01/12 07:30:09;;;;;;;0.00;0.00;;;;;;;-7.59;100.00;144443.41;4982793;28;20694;-67
2024/01/12 07:32:35;;;;;;;0.00;0.00;;;;;;;-7.56;100.00;144450.78;4985699;28;20226;-67
2024/01/12 07:35:02;;;;;;;0.00;0.00;;;;;;;-7.55;100.00;144451.97;4982833;28;20693;-67
2024/01/12 07:37:29;;;;;;;0.10;0.10;;;;;;;-7.58;100.00;144444.63;4986066;28;20225;-67
2024/01/12 07:39:55;;;;;;;0.03;0.03;;;;;;;-7.57;100.00;144448.31;4998041;28;20236;-67
2024/01/12 07:42:22;;;;;;;0.10;0.10;;;;;;;-7.52;100.00;144458.16;4986949;28;20233;-67
2024/01/12 07:44:49;;;;;;;0.00;0.00;;;;;;;-7.48;100.00;144469.19;4982678;28;20755;-67
2024/01/12 07:47:17;;;;;;;0.00;0.00;;;;;;;-7.43;100.00;144480.28;4986721;28;20240;-67
2024/01/12 07:49:43;;;;;;;0.00;0.00;;;;;;;-7.47;100.00;144471.66;4981540;28;20414;-67
2024/01/12 07:52:10;;;;;;;0.10;0.10;;;;;;;-7.38;100.00;144492.50;4984858;28;20297;-67
2024/01/12 07:54:37;;;;;;;0.00;0.00;;;;;;;-7.33;100.00;144503.59;4986372;28;20250;-67
2024/01/12 07:57:04;;;;;;;0.10;0.10;;;;;;;-7.30;100.00;144510.97;4983960;28;20248;-66
2024/01/12 07:59:31;;;;;;;0.00;0.00;;;;;;;-7.29;100.00;144514.63;4984270;28;20225;-66
2024/01/12 08:01:57;;;;;;;0.00;0.00;;;;;;;-7.28;100.00;144515.88;4982638;28;20673;-66
2024/01/12 08:04:25;;;;;;;0.00;0.00;;;;;;;-7.29;100.00;144514.63;4985616;28;20225;-66
2024/01/12 08:06:52;;;;;;;0.00;0.00;;;;;;;-7.29;100.00;144514.63;4982417;28;20234;-67
2024/01/12 08:09:19;;;;;;;0.00;0.00;;;;;;;-7.27;100.00;144518.34;4985653;28;20736;-67
2024/01/12 08:11:45;;;;;;;0.00;0.00;;;;;;;-7.19;100.00;144538.00;4982891;28;20222;-66
2024/01/12 08:14:12;;;;;;;0.10;0.10;;;;;;;-7.16;100.00;144544.13;4986634;28;20227;-66
2024/01/12 08:16:38;;;;;;;0.00;0.00;;;;;;;-7.10;100.00;144557.69;4985788;28;20218;-66
2024/01/12 08:19:05;;;;;;;0.00;0.00;;;;;;;-7.09;100.00;144561.34;4981513;28;20241;-66
2024/01/12 08:21:33;;;;;;;0.00;0.00;;;;;;;-6.99;100.00;144584.72;4984289;28;20262;-66
2024/01/12 08:23:59;;;;;;;0.00;0.00;;;;;;;-6.98;100.00;144587.19;4972592;28;20237;-66
2024/01/12 08:26:26;;;;;;;0.00;0.00;;;;;;;-6.95;100.00;144593.31;4985447;28;20233;-66
2024/01/12 08:28:55;;;;;;;0.00;0.00;;;;;;;-6.93;100.00;144599.47;4982424;28;20221;-66
2024/01/12 08:31:22;;;;;;;0.00;0.00;;;;;;;-6.85;100.00;144619.09;4984666;28;20242;-67
2024/01/12 08:33:49;;;;;;;0.00;0.00;;;;;;;-6.75;100.00;144641.22;4981807;28;20223;-66
2024/01/12 08:36:16;;;;;;;0.00;0.00;;;;;;;-6.72;100.00;144648.59;4985139;28;20254;-66
2024/01/12 08:38:44;;;;;;;0.00;0.00;;;;;;;-6.64;100.00;144667.06;4985752;28;20334;-67
2024/01/12 08:41:11;;;;;;;0.10;0.10;;;;;;;-6.64;100.00;144668.28;4982054;28;20230;-67
2024/01/12 08:43:37;;;;;;;0.00;0.00;;;;;;;-6.55;100.00;144689.22;4985307;28;20226;-67
2024/01/12 08:46:04;;;;;;;0.00;0.00;;;;;;;-6.55;100.00;144689.22;4982006;28;20238;-67
2024/01/12 08:48:31;;;;;;;0.00;0.00;;;;;;;-6.50;100.00;144701.50;4983867;28;20236;-67
2024/01/12 08:50:58;;;;;;;0.07;0.07;;;;;;;-6.41;100.00;144722.41;4979188;28;20697;-67
2024/01/12 08:53:25;;;;;;;0.10;0.10;;;;;;;-6.35;100.00;144735.91;4983535;28;20846;-67
2024/01/12 08:55:53;;;;;;;0.00;0.00;;;;;;;-6.28;100.00;144753.13;4980902;28;20297;-67
2024/01/12 08:58:20;;;;;;;0.00;0.00;;;;;;;-6.25;100.00;144760.50;4984988;28;20229;-67
2024/01/12 09:00:46;;;;;;;0.00;0.00;;;;;;;-6.21;100.00;144769.13;4982349;28;20236;-67
2024/01/12 09:03:13;;;;;;;0.00;0.00;;;;;;;-6.10;100.00;144796.19;4984143;28;20647;-67
2024/01/12 09:05:40;;;;;;;0.00;0.00;;;;;;;-6.02;100.00;144814.63;4986701;28;20244;-67
2024/01/12 09:08:06;;;;;;;0.10;0.10;;;;;;;-5.96;100.00;144830.59;4983082;28;20241;-67
2024/01/12 09:10:33;;;;;;;0.00;0.00;;;;;;;-5.87;100.00;144850.28;4985303;28;20226;-67
2024/01/12 09:13:02;;;;;;;0.03;0.03;;;;;;;-5.80;100.00;144867.47;4981261;28;20235;-67
2024/01/12 09:15:29;;;;;;;0.00;0.00;;;;;;;-5.68;100.00;144897.00;4984941;28;20322;-67
2024/01/12 09:17:55;;;;;;;0.00;0.00;;;;;;;-5.58;100.00;144919.16;4981347;28;20226;-67
2024/01/12 09:20:22;;;;;;;0.10;0.10;;;;;;;-5.50;100.00;144938.84;4983941;28;20851;-67
2024/01/12 09:22:50;;;;;;;0.00;0.00;;;;;;;-5.45;100.00;144949.94;4980484;28;20279;-67
2024/01/12 09:25:17;;;;;;;0.00;0.00;;;;;;;-5.31;100.00;144983.16;4984494;28;20725;-67
2024/01/12 09:27:43;;;;;;;0.00;0.00;;;;;;;-5.21;100.00;145009.00;4981895;28;20227;-67
2024/01/12 09:30:12;;;;;;;0.00;0.00;;;;;;;-5.10;100.00;145033.63;4999531;28;20706;-67
2024/01/12 09:32:39;;;;;;;0.00;0.00;;;;;;;-4.99;100.00;145059.50;4983450;28;20228;-67
2024/01/12 09:35:06;;;;;;;0.00;0.00;;;;;;;-4.86;100.00;145090.25;4979349;28;20228;-67
2024/01/12 09:37:32;;;;;;;0.00;0.00;;;;;;;-4.81;100.00;145102.56;4984280;28;20219;-67
2024/01/12 09:39:59;;;;;;;0.00;0.00;;;;;;;-4.72;100.00;145124.75;4979701;28;20238;-67
2024/01/12 09:42:32;;;;;;;0.00;0.00;;;;;;;-4.63;100.00;145145.66;4984468;28;20251;-67
2024/01/12 09:45:00;;;;;;;0.00;0.00;;;;;;;-4.55;100.00;145164.16;4979751;28;20237;-67
2024/01/12 09:47:28;;;;;;;0.00;0.00;;;;;;;-4.51;100.00;145175.22;4984241;28;20222;-67
2024/01/12 09:49:56;;;;;;;0.00;0.00;;;;;;;-4.45;100.00;145188.78;4981948;28;20226;-67
2024/01/12 09:52:22;;;;;;;0.00;0.00;;;;;;;-4.36;100.00;145210.97;4999949;28;20910;-67
2024/01/12 09:54:49;;;;;;;0.00;0.00;;;;;;;-4.26;100.00;145234.34;4981817;28;20245;-67
2024/01/12 09:57:16;;;;;;;0.00;0.00;;;;;;;-4.28;100.00;145229.41;4982845;28;20231;-67
2024/01/12 09:59:44;;;;;;;0.00;0.00;;;;;;;-4.19;100.00;145251.59;4980198;28;20234;-67
2024/01/12 10:02:13;;;;;;;0.00;0.00;;;;;;;-4.24;100.00;145239.28;4983193;28;20230;-67
2024/01/12 10:04:41;;;;;;;0.00;0.00;;;;;;;-4.13;100.00;145263.91;4973002;28;20315;-67
2024/01/12 10:07:08;;;;;;;0.00;0.00;;;;;;;-4.13;100.00;145265.13;4980945;28;20259;-67
2024/01/12 10:09:34;;;;;;;0.00;0.00;;;;;;;-4.01;100.00;145294.69;4987710;28;20369;-67
2024/01/12 10:12:01;;;;;;;0.00;0.00;;;;;;;-3.97;100.00;145303.34;4982417;28;20427;-67
2024/01/12 10:14:28;;;;;;;0.00;0.00;;;;;;;-3.96;100.00;145304.56;4986944;28;20238;-67
2024/01/12 10:16:55;;;;;;;0.00;0.00;;;;;;;-3.89;100.00;145323.06;4982981;28;20217;-67
2024/01/12 10:19:21;;;;;;;0.00;0.00;;;;;;;-3.82;100.00;145337.84;4988686;28;20245;-67
2024/01/12 10:21:50;;;;;;;0.00;0.00;;;;;;;-3.83;100.00;145336.59;4984731;28;20235;-67
2024/01/12 10:24:20;;;;;;;0.00;0.00;;;;;;;-3.80;100.00;145344.00;4987321;28;20647;-67
2024/01/12 10:26:47;;;;;;;0.00;0.00;;;;;;;-3.73;100.00;145361.25;4985060;28;20220;-67
2024/01/12 10:29:14;;;;;;;0.00;0.00;;;;;;;-3.59;100.00;145393.31;4986874;28;20220;-67
2024/01/12 10:31:42;;;;;;;0.00;0.00;;;;;;;-3.59;100.00;145393.31;4987941;28;20223;-67
2024/01/12 10:34:11;;;;;;;0.00;0.00;;;;;;;-3.61;100.00;145388.38;4985007;28;20652;-67
2024/01/12 10:36:39;;;;;;;0.00;0.00;;;;;;;-3.63;100.00;145384.66;4986733;28;20241;-67
2024/01/12 10:39:09;;;;;;;0.00;0.00;;;;;;;-3.60;100.00;145390.84;4984734;28;20223;-67
2024/01/12 10:41:36;;;;;;;0.00;0.00;;;;;;;-3.56;100.00;145401.91;4985917;28;20669;-67
2024/01/12 10:44:05;;;;;;;0.00;0.00;;;;;;;-3.54;100.00;145404.38;4984397;28;20590;-66
2024/01/12 10:46:35;;;;;;;0.00;0.00;;;;;;;-3.45;100.00;145427.81;4987310;28;20226;-66
2024/01/12 10:49:14;;;;;;;0.00;0.00;;;;;;;-3.49;100.00;145417.97;4977369;28;20274;-67
2024/01/12 10:51:49;;;;;;;0.00;0.00;;;;;;;-3.42;100.00;145435.22;4975764;28;20647;-67
2024/01/12 10:54:26;;;;;;;0.00;0.00;;;;;;;-3.45;100.00;145427.81;4983244;28;20299;-67
2024/01/12 10:56:54;;;;;;;0.00;0.00;;;;;;;-3.43;100.00;145431.50;4982993;28;20227;-66
2024/01/12 10:59:22;;;;;;;0.00;0.00;;;;;;;-3.41;100.00;145436.44;4987419;28;20596;-66
2024/01/12 11:01:52;;;;;;;0.00;0.00;;;;;;;-3.30;100.00;145463.56;4984306;28;20249;-62
2024/01/12 11:04:21;;;;;;;0.00;0.00;;;;;;;-2.24;100.00;145715.16;4987325;28;20242;-66
2024/01/12 11:06:51;;;;;;;0.00;0.00;;;;;;;-2.54;100.00;145643.59;4983026;28;20309;-66
2024/01/12 11:09:20;;;;;;;0.00;0.00;;;;;;;-2.71;99.63;145602.91;4986891;28;20311;-67
2024/01/12 11:11:52;;;;;;;0.00;0.00;;;;;;;-2.58;98.21;145634.97;4983017;28;20223;-67
2024/01/12 11:14:20;;;;;;;0.00;0.00;;;;;;;-2.79;98.11;145583.16;4986929;28;20363;-67
2024/01/12 11:16:47;;;;;;;0.00;0.00;;;;;;;-2.76;97.93;145591.81;4975177;28;20331;-67
2024/01/12 11:19:14;;;;;;;0.00;0.00;;;;;;;-2.76;97.80;145591.81;4985157;28;20286;-66